Terminal Aerodrome Forecast
Issued by NWS

Home | Current Version | Previous Version | Text Only | Print | Product List | Glossary On
Versions: 1 2 3 4 5 6 7 8 9 10 11 12 13 14 15 16 17 18 19 20
000
FTUS43 KGRB 311700
TAFAUW
TAF
KAUW 311732Z 3118/0118 01017G28KT P6SM OVC040
      TEMPO 3119/3122 SCT040
     FM312200 35012G20KT P6SM SCT050
     FM010400 35003KT P6SM SKC
     FM011600 18004KT P6SM SCT250=

USA.gov is the U.S. government's official web portal to all federal, state and local government web resources and services.